sensor_id;sensor_type;location;lat;lon;timestamp;P1;durP1;ratioP1;P2;durP2;ratioP2
82030;SDS011;71592;52.178;4.512;2024-02-26T00:01:00;4.25;;;2.90;;
82030;SDS011;71592;52.178;4.512;2024-02-26T00:03:25;4.20;;;3.10;;
82030;SDS011;71592;52.178;4.512;2024-02-26T00:05:50;4.53;;;2.63;;
82030;SDS011;71592;52.178;4.512;2024-02-26T00:08:15;4.40;;;3.40;;
82030;SDS011;71592;52.178;4.512;2024-02-26T00:10:41;5.60;;;2.90;;
82030;SDS011;71592;52.178;4.512;2024-02-26T00:13:07;4.25;;;3.35;;
82030;SDS011;71592;52.178;4.512;2024-02-26T00:15:32;4.90;;;2.90;;
82030;SDS011;71592;52.178;4.512;2024-02-26T00:18:00;4.65;;;3.38;;
82030;SDS011;71592;52.178;4.512;2024-02-26T00:20:25;4.75;;;3.30;;
82030;SDS011;71592;52.178;4.512;2024-02-26T00:22:51;3.58;;;2.78;;
82030;SDS011;71592;52.178;4.512;2024-02-26T00:25:16;5.13;;;2.57;;
82030;SDS011;71592;52.178;4.512;2024-02-26T00:27:41;5.77;;;2.83;;
82030;SDS011;71592;52.178;4.512;2024-02-26T00:30:08;7.10;;;3.42;;
82030;SDS011;71592;52.178;4.512;2024-02-26T00:32:34;4.75;;;3.40;;
82030;SDS011;71592;52.178;4.512;2024-02-26T00:34:59;5.33;;;3.43;;
82030;SDS011;71592;52.178;4.512;2024-02-26T00:37:24;5.60;;;3.40;;
82030;SDS011;71592;52.178;4.512;2024-02-26T00:39:50;4.90;;;3.28;;
82030;SDS011;71592;52.178;4.512;2024-02-26T00:42:15;5.03;;;3.75;;
82030;SDS011;71592;52.178;4.512;2024-02-26T00:44:40;6.10;;;3.93;;
82030;SDS011;71592;52.178;4.512;2024-02-26T00:47:06;5.23;;;4.13;;
82030;SDS011;71592;52.178;4.512;2024-02-26T00:49:31;6.20;;;4.43;;
82030;SDS011;71592;52.178;4.512;2024-02-26T00:51:56;6.57;;;4.37;;
82030;SDS011;71592;52.178;4.512;2024-02-26T00:54:21;6.17;;;3.67;;
82030;SDS011;71592;52.178;4.512;2024-02-26T00:56:47;8.33;;;4.70;;
82030;SDS011;71592;52.178;4.512;2024-02-26T00:59:12;5.85;;;4.00;;
82030;SDS011;71592;52.178;4.512;2024-02-26T01:01:37;5.50;;;3.93;;
82030;SDS011;71592;52.178;4.512;2024-02-26T01:04:03;5.37;;;3.90;;
82030;SDS011;71592;52.178;4.512;2024-02-26T01:06:28;5.38;;;3.85;;
82030;SDS011;71592;52.178;4.512;2024-02-26T01:08:53;5.78;;;3.85;;
82030;SDS011;71592;52.178;4.512;2024-02-26T01:11:19;6.32;;;5.55;;
82030;SDS011;71592;52.178;4.512;2024-02-26T01:13:44;5.57;;;4.20;;
82030;SDS011;71592;52.178;4.512;2024-02-26T01:16:09;5.03;;;3.80;;
82030;SDS011;71592;52.178;4.512;2024-02-26T01:18:35;5.88;;;3.50;;
82030;SDS011;71592;52.178;4.512;2024-02-26T01:21:01;5.27;;;4.13;;
82030;SDS011;71592;52.178;4.512;2024-02-26T01:23:26;6.40;;;3.97;;
82030;SDS011;71592;52.178;4.512;2024-02-26T01:25:51;5.03;;;3.33;;
82030;SDS011;71592;52.178;4.512;2024-02-26T01:28:16;6.30;;;4.37;;
82030;SDS011;71592;52.178;4.512;2024-02-26T01:30:42;5.77;;;4.47;;
82030;SDS011;71592;52.178;4.512;2024-02-26T01:33:07;6.03;;;4.00;;
82030;SDS011;71592;52.178;4.512;2024-02-26T01:35:32;6.37;;;4.43;;
82030;SDS011;71592;52.178;4.512;2024-02-26T01:37:58;5.93;;;4.03;;
82030;SDS011;71592;52.178;4.512;2024-02-26T01:40:26;7.22;;;4.65;;
82030;SDS011;71592;52.178;4.512;2024-02-26T01:42:52;6.30;;;4.18;;
82030;SDS011;71592;52.178;4.512;2024-02-26T01:45:17;7.82;;;5.43;;
82030;SDS011;71592;52.178;4.512;2024-02-26T01:47:52;7.05;;;4.90;;
82030;SDS011;71592;52.178;4.512;2024-02-26T01:50:20;8.73;;;5.63;;
82030;SDS011;71592;52.178;4.512;2024-02-26T01:52:47;6.13;;;4.45;;
82030;SDS011;71592;52.178;4.512;2024-02-26T01:55:13;7.45;;;4.50;;
82030;SDS011;71592;52.178;4.512;2024-02-26T01:57:39;9.15;;;5.30;;
82030;SDS011;71592;52.178;4.512;2024-02-26T02:00:05;8.00;;;5.28;;
82030;SDS011;71592;52.178;4.512;2024-02-26T02:02:30;7.43;;;5.38;;
82030;SDS011;71592;52.178;4.512;2024-02-26T02:04:56;8.43;;;5.80;;
82030;SDS011;71592;52.178;4.512;2024-02-26T02:07:21;6.90;;;4.80;;
82030;SDS011;71592;52.178;4.512;2024-02-26T02:09:48;7.80;;;4.43;;
82030;SDS011;71592;52.178;4.512;2024-02-26T02:12:13;7.72;;;4.88;;
82030;SDS011;71592;52.178;4.512;2024-02-26T02:14:38;7.20;;;5.20;;
82030;SDS011;71592;52.178;4.512;2024-02-26T02:17:03;6.00;;;4.27;;
82030;SDS011;71592;52.178;4.512;2024-02-26T02:19:29;6.30;;;5.27;;
82030;SDS011;71592;52.178;4.512;2024-02-26T02:21:54;7.47;;;4.90;;
82030;SDS011;71592;52.178;4.512;2024-02-26T02:24:19;10.70;;;5.70;;
82030;SDS011;71592;52.178;4.512;2024-02-26T02:26:45;8.63;;;5.35;;
82030;SDS011;71592;52.178;4.512;2024-02-26T02:29:10;6.53;;;4.73;;
82030;SDS011;71592;52.178;4.512;2024-02-26T02:31:36;6.60;;;4.70;;
82030;SDS011;71592;52.178;4.512;2024-02-26T02:34:01;6.60;;;4.67;;
82030;SDS011;71592;52.178;4.512;2024-02-26T02:36:27;6.10;;;4.25;;
82030;SDS011;71592;52.178;4.512;2024-02-26T02:38:52;6.57;;;4.57;;
82030;SDS011;71592;52.178;4.512;2024-02-26T02:41:17;6.55;;;4.70;;
82030;SDS011;71592;52.178;4.512;2024-02-26T02:43:43;6.18;;;4.22;;
82030;SDS011;71592;52.178;4.512;2024-02-26T02:46:08;6.13;;;4.30;;
82030;SDS011;71592;52.178;4.512;2024-02-26T02:48:33;6.05;;;4.28;;
82030;SDS011;71592;52.178;4.512;2024-02-26T02:50:59;7.17;;;4.40;;
82030;SDS011;71592;52.178;4.512;2024-02-26T02:53:24;6.50;;;4.60;;
82030;SDS011;71592;52.178;4.512;2024-02-26T02:55:52;8.23;;;5.20;;
82030;SDS011;71592;52.178;4.512;2024-02-26T02:58:17;7.93;;;5.00;;
82030;SDS011;71592;52.178;4.512;2024-02-26T03:00:43;9.03;;;5.07;;
82030;SDS011;71592;52.178;4.512;2024-02-26T03:03:08;6.53;;;4.30;;
82030;SDS011;71592;52.178;4.512;2024-02-26T03:05:33;7.23;;;4.80;;
82030;SDS011;71592;52.178;4.512;2024-02-26T03:07:58;8.40;;;5.33;;
82030;SDS011;71592;52.178;4.512;2024-02-26T03:10:24;9.75;;;5.32;;
82030;SDS011;71592;52.178;4.512;2024-02-26T03:12:50;10.27;;;6.30;;
82030;SDS011;71592;52.178;4.512;2024-02-26T03:15:15;7.80;;;4.90;;
82030;SDS011;71592;52.178;4.512;2024-02-26T03:17:40;7.63;;;5.80;;
82030;SDS011;71592;52.178;4.512;2024-02-26T03:20:06;9.18;;;5.63;;
82030;SDS011;71592;52.178;4.512;2024-02-26T03:22:33;10.30;;;5.60;;
82030;SDS011;71592;52.178;4.512;2024-02-26T03:24:58;7.18;;;4.80;;
82030;SDS011;71592;52.178;4.512;2024-02-26T03:27:24;8.30;;;5.15;;
82030;SDS011;71592;52.178;4.512;2024-02-26T03:29:52;9.13;;;5.70;;
82030;SDS011;71592;52.178;4.512;2024-02-26T03:32:18;10.15;;;5.72;;
82030;SDS011;71592;52.178;4.512;2024-02-26T03:34:43;9.90;;;5.55;;
82030;SDS011;71592;52.178;4.512;2024-02-26T03:37:08;10.90;;;6.00;;
82030;SDS011;71592;52.178;4.512;2024-02-26T03:39:35;9.43;;;6.25;;
82030;SDS011;71592;52.178;4.512;2024-02-26T03:42:00;10.70;;;5.47;;
82030;SDS011;71592;52.178;4.512;2024-02-26T03:44:26;10.68;;;6.05;;
82030;SDS011;71592;52.178;4.512;2024-02-26T03:46:51;8.53;;;5.73;;
82030;SDS011;71592;52.178;4.512;2024-02-26T03:49:16;11.27;;;7.37;;
82030;SDS011;71592;52.178;4.512;2024-02-26T03:51:42;9.13;;;6.45;;
82030;SDS011;71592;52.178;4.512;2024-02-26T03:54:08;9.90;;;6.40;;
82030;SDS011;71592;52.178;4.512;2024-02-26T03:56:33;10.60;;;6.22;;
82030;SDS011;71592;52.178;4.512;2024-02-26T03:58:58;10.23;;;6.60;;
82030;SDS011;71592;52.178;4.512;2024-02-26T04:01:26;10.63;;;5.90;;
82030;SDS011;71592;52.178;4.512;2024-02-26T04:03:51;12.68;;;6.45;;
82030;SDS011;71592;52.178;4.512;2024-02-26T04:06:17;11.00;;;5.72;;
82030;SDS011;71592;52.178;4.512;2024-02-26T04:08:44;12.90;;;7.03;;
82030;SDS011;71592;52.178;4.512;2024-02-26T04:11:10;9.52;;;5.57;;
82030;SDS011;71592;52.178;4.512;2024-02-26T04:13:35;12.77;;;7.00;;
82030;SDS011;71592;52.178;4.512;2024-02-26T04:16:00;11.43;;;6.68;;
82030;SDS011;71592;52.178;4.512;2024-02-26T04:18:29;12.13;;;6.28;;
82030;SDS011;71592;52.178;4.512;2024-02-26T04:20:54;12.60;;;7.70;;
82030;SDS011;71592;52.178;4.512;2024-02-26T04:23:19;10.43;;;6.70;;
82030;SDS011;71592;52.178;4.512;2024-02-26T04:25:45;10.88;;;6.55;;
82030;SDS011;71592;52.178;4.512;2024-02-26T04:28:10;11.57;;;6.60;;
82030;SDS011;71592;52.178;4.512;2024-02-26T04:30:36;11.70;;;7.22;;
82030;SDS011;71592;52.178;4.512;2024-02-26T04:33:01;9.80;;;5.47;;
82030;SDS011;71592;52.178;4.512;2024-02-26T04:35:27;11.10;;;6.35;;
82030;SDS011;71592;52.178;4.512;2024-02-26T04:37:52;12.00;;;6.30;;
82030;SDS011;71592;52.178;4.512;2024-02-26T04:40:17;12.40;;;6.70;;
82030;SDS011;71592;52.178;4.512;2024-02-26T04:42:43;10.37;;;5.97;;
82030;SDS011;71592;52.178;4.512;2024-02-26T04:45:08;11.37;;;6.77;;
82030;SDS011;71592;52.178;4.512;2024-02-26T04:47:33;13.52;;;7.65;;
82030;SDS011;71592;52.178;4.512;2024-02-26T04:49:59;10.88;;;6.15;;
82030;SDS011;71592;52.178;4.512;2024-02-26T04:52:25;11.85;;;7.20;;
82030;SDS011;71592;52.178;4.512;2024-02-26T04:54:50;12.73;;;7.18;;
82030;SDS011;71592;52.178;4.512;2024-02-26T04:57:15;12.73;;;7.67;;
82030;SDS011;71592;52.178;4.512;2024-02-26T04:59:43;9.35;;;6.25;;
82030;SDS011;71592;52.178;4.512;2024-02-26T05:02:09;12.50;;;7.13;;
82030;SDS011;71592;52.178;4.512;2024-02-26T05:04:34;10.70;;;6.57;;
82030;SDS011;71592;52.178;4.512;2024-02-26T05:07:00;11.35;;;7.65;;
82030;SDS011;71592;52.178;4.512;2024-02-26T05:09:25;12.52;;;7.03;;
82030;SDS011;71592;52.178;4.512;2024-02-26T05:11:50;13.63;;;7.60;;
82030;SDS011;71592;52.178;4.512;2024-02-26T05:14:15;13.83;;;8.20;;
82030;SDS011;71592;52.178;4.512;2024-02-26T05:16:41;14.00;;;7.27;;
82030;SDS011;71592;52.178;4.512;2024-02-26T05:19:06;13.63;;;7.63;;
82030;SDS011;71592;52.178;4.512;2024-02-26T05:21:31;14.83;;;7.33;;
82030;SDS011;71592;52.178;4.512;2024-02-26T05:23:56;14.87;;;8.40;;
82030;SDS011;71592;52.178;4.512;2024-02-26T05:26:22;14.95;;;7.15;;
82030;SDS011;71592;52.178;4.512;2024-02-26T05:28:47;12.23;;;7.53;;
82030;SDS011;71592;52.178;4.512;2024-02-26T05:31:13;13.23;;;7.70;;
82030;SDS011;71592;52.178;4.512;2024-02-26T05:33:38;15.07;;;8.77;;
82030;SDS011;71592;52.178;4.512;2024-02-26T05:36:04;16.58;;;9.07;;
82030;SDS011;71592;52.178;4.512;2024-02-26T05:38:30;15.05;;;8.48;;
82030;SDS011;71592;52.178;4.512;2024-02-26T05:40:56;14.45;;;8.05;;
82030;SDS011;71592;52.178;4.512;2024-02-26T05:43:22;17.38;;;9.25;;
82030;SDS011;71592;52.178;4.512;2024-02-26T05:45:47;13.43;;;6.63;;
82030;SDS011;71592;52.178;4.512;2024-02-26T05:48:12;15.07;;;8.25;;
82030;SDS011;71592;52.178;4.512;2024-02-26T05:50:38;16.60;;;9.43;;
82030;SDS011;71592;52.178;4.512;2024-02-26T05:53:03;18.08;;;10.43;;
82030;SDS011;71592;52.178;4.512;2024-02-26T05:55:28;17.42;;;9.07;;
82030;SDS011;71592;52.178;4.512;2024-02-26T05:57:54;15.75;;;8.98;;
82030;SDS011;71592;52.178;4.512;2024-02-26T06:00:19;17.53;;;9.67;;
82030;SDS011;71592;52.178;4.512;2024-02-26T06:02:44;15.55;;;8.80;;
82030;SDS011;71592;52.178;4.512;2024-02-26T06:05:10;13.93;;;10.13;;
82030;SDS011;71592;52.178;4.512;2024-02-26T06:07:35;14.63;;;7.90;;
82030;SDS011;71592;52.178;4.512;2024-02-26T06:10:01;16.70;;;8.55;;
82030;SDS011;71592;52.178;4.512;2024-02-26T06:12:27;21.95;;;10.10;;
82030;SDS011;71592;52.178;4.512;2024-02-26T06:14:53;15.07;;;9.52;;
82030;SDS011;71592;52.178;4.512;2024-02-26T06:17:18;17.60;;;10.07;;
82030;SDS011;71592;52.178;4.512;2024-02-26T06:19:44;15.80;;;9.10;;
82030;SDS011;71592;52.178;4.512;2024-02-26T06:22:09;15.17;;;9.60;;
82030;SDS011;71592;52.178;4.512;2024-02-26T06:24:34;16.83;;;9.87;;
82030;SDS011;71592;52.178;4.512;2024-02-26T06:26:59;15.53;;;9.97;;
82030;SDS011;71592;52.178;4.512;2024-02-26T06:29:25;16.70;;;9.65;;
82030;SDS011;71592;52.178;4.512;2024-02-26T06:31:50;16.38;;;8.60;;
82030;SDS011;71592;52.178;4.512;2024-02-26T06:34:15;13.05;;;8.00;;
82030;SDS011;71592;52.178;4.512;2024-02-26T06:36:41;15.23;;;9.10;;
82030;SDS011;71592;52.178;4.512;2024-02-26T06:39:06;14.93;;;8.97;;
82030;SDS011;71592;52.178;4.512;2024-02-26T06:41:31;11.07;;;6.90;;
82030;SDS011;71592;52.178;4.512;2024-02-26T06:43:57;13.05;;;8.40;;
82030;SDS011;71592;52.178;4.512;2024-02-26T06:46:22;13.63;;;7.07;;
82030;SDS011;71592;52.178;4.512;2024-02-26T06:48:48;11.43;;;7.85;;
82030;SDS011;71592;52.178;4.512;2024-02-26T06:51:14;11.60;;;7.03;;
82030;SDS011;71592;52.178;4.512;2024-02-26T06:53:39;10.75;;;6.63;;
82030;SDS011;71592;52.178;4.512;2024-02-26T06:56:04;12.65;;;7.20;;
82030;SDS011;71592;52.178;4.512;2024-02-26T06:58:30;13.23;;;7.70;;
82030;SDS011;71592;52.178;4.512;2024-02-26T07:00:55;13.63;;;7.30;;
82030;SDS011;71592;52.178;4.512;2024-02-26T07:03:20;11.40;;;7.53;;
82030;SDS011;71592;52.178;4.512;2024-02-26T07:05:51;14.48;;;7.60;;
82030;SDS011;71592;52.178;4.512;2024-02-26T07:08:16;14.48;;;8.05;;
82030;SDS011;71592;52.178;4.512;2024-02-26T07:10:42;14.13;;;7.40;;
82030;SDS011;71592;52.178;4.512;2024-02-26T07:13:08;12.35;;;8.07;;
82030;SDS011;71592;52.178;4.512;2024-02-26T07:15:33;11.67;;;7.30;;
82030;SDS011;71592;52.178;4.512;2024-02-26T07:17:59;14.77;;;8.33;;
82030;SDS011;71592;52.178;4.512;2024-02-26T07:20:28;11.10;;;6.53;;
82030;SDS011;71592;52.178;4.512;2024-02-26T07:22:53;13.05;;;6.95;;
82030;SDS011;71592;52.178;4.512;2024-02-26T07:25:18;8.43;;;5.10;;
82030;SDS011;71592;52.178;4.512;2024-02-26T07:27:44;11.00;;;6.67;;
82030;SDS011;71592;52.178;4.512;2024-02-26T07:30:09;12.30;;;9.23;;
82030;SDS011;71592;52.178;4.512;2024-02-26T07:32:34;10.35;;;5.65;;
82030;SDS011;71592;52.178;4.512;2024-02-26T07:35:00;9.90;;;5.67;;
82030;SDS011;71592;52.178;4.512;2024-02-26T07:37:25;8.83;;;5.70;;
82030;SDS011;71592;52.178;4.512;2024-02-26T07:39:50;7.80;;;5.57;;
82030;SDS011;71592;52.178;4.512;2024-02-26T07:42:16;9.30;;;5.40;;
82030;SDS011;71592;52.178;4.512;2024-02-26T07:44:41;8.93;;;5.53;;
82030;SDS011;71592;52.178;4.512;2024-02-26T07:47:08;7.63;;;4.38;;
82030;SDS011;71592;52.178;4.512;2024-02-26T07:49:34;8.90;;;4.88;;
82030;SDS011;71592;52.178;4.512;2024-02-26T07:51:59;8.52;;;5.55;;
82030;SDS011;71592;52.178;4.512;2024-02-26T07:54:25;7.75;;;5.05;;
82030;SDS011;71592;52.178;4.512;2024-02-26T07:56:50;6.70;;;4.78;;
82030;SDS011;71592;52.178;4.512;2024-02-26T07:59:15;7.03;;;4.38;;
82030;SDS011;71592;52.178;4.512;2024-02-26T08:01:40;6.70;;;4.40;;
82030;SDS011;71592;52.178;4.512;2024-02-26T08:04:06;7.43;;;5.25;;
82030;SDS011;71592;52.178;4.512;2024-02-26T08:06:32;6.82;;;4.53;;
82030;SDS011;71592;52.178;4.512;2024-02-26T08:08:57;6.78;;;4.35;;
82030;SDS011;71592;52.178;4.512;2024-02-26T08:11:22;6.67;;;3.80;;
82030;SDS011;71592;52.178;4.512;2024-02-26T08:13:48;5.78;;;4.15;;
82030;SDS011;71592;52.178;4.512;2024-02-26T08:16:13;8.07;;;4.78;;
82030;SDS011;71592;52.178;4.512;2024-02-26T08:18:38;8.17;;;4.67;;
82030;SDS011;71592;52.178;4.512;2024-02-26T08:21:04;6.38;;;4.63;;
82030;SDS011;71592;52.178;4.512;2024-02-26T08:23:29;8.18;;;4.47;;
82030;SDS011;71592;52.178;4.512;2024-02-26T08:25:56;7.43;;;4.80;;
82030;SDS011;71592;52.178;4.512;2024-02-26T08:28:21;6.50;;;4.70;;
82030;SDS011;71592;52.178;4.512;2024-02-26T08:30:46;5.57;;;3.63;;
82030;SDS011;71592;52.178;4.512;2024-02-26T08:33:11;6.43;;;4.03;;
82030;SDS011;71592;52.178;4.512;2024-02-26T08:35:38;7.47;;;4.00;;
82030;SDS011;71592;52.178;4.512;2024-02-26T08:38:03;5.65;;;3.17;;
82030;SDS011;71592;52.178;4.512;2024-02-26T08:40:29;6.60;;;3.73;;
82030;SDS011;71592;52.178;4.512;2024-02-26T08:42:54;6.50;;;3.88;;
82030;SDS011;71592;52.178;4.512;2024-02-26T08:45:20;7.13;;;4.15;;
82030;SDS011;71592;52.178;4.512;2024-02-26T08:47:45;6.40;;;3.97;;
82030;SDS011;71592;52.178;4.512;2024-02-26T08:50:11;5.03;;;3.40;;
82030;SDS011;71592;52.178;4.512;2024-02-26T08:52:37;6.57;;;4.55;;
82030;SDS011;71592;52.178;4.512;2024-02-26T08:55:02;5.70;;;3.75;;
82030;SDS011;71592;52.178;4.512;2024-02-26T08:57:28;5.63;;;4.28;;
82030;SDS011;71592;52.178;4.512;2024-02-26T08:59:53;5.13;;;3.20;;
82030;SDS011;71592;52.178;4.512;2024-02-26T09:02:18;7.93;;;4.60;;
82030;SDS011;71592;52.178;4.512;2024-02-26T09:04:45;11.23;;;6.55;;
82030;SDS011;71592;52.178;4.512;2024-02-26T09:07:10;5.55;;;4.20;;
82030;SDS011;71592;52.178;4.512;2024-02-26T09:09:35;5.60;;;3.37;;
82030;SDS011;71592;52.178;4.512;2024-02-26T09:12:01;5.90;;;3.25;;
82030;SDS011;71592;52.178;4.512;2024-02-26T09:14:26;4.75;;;3.78;;
82030;SDS011;71592;52.178;4.512;2024-02-26T09:16:51;5.20;;;3.33;;
82030;SDS011;71592;52.178;4.512;2024-02-26T09:19:17;6.10;;;4.43;;
82030;SDS011;71592;52.178;4.512;2024-02-26T09:21:45;4.60;;;3.10;;
82030;SDS011;71592;52.178;4.512;2024-02-26T09:24:11;5.13;;;3.72;;
82030;SDS011;71592;52.178;4.512;2024-02-26T09:26:36;5.68;;;4.18;;
82030;SDS011;71592;52.178;4.512;2024-02-26T09:29:05;10.45;;;4.22;;
82030;SDS011;71592;52.178;4.512;2024-02-26T09:31:31;5.10;;;4.50;;
82030;SDS011;71592;52.178;4.512;2024-02-26T09:33:56;4.80;;;3.80;;
82030;SDS011;71592;52.178;4.512;2024-02-26T09:36:21;5.90;;;3.83;;
82030;SDS011;71592;52.178;4.512;2024-02-26T09:38:47;7.17;;;4.30;;
82030;SDS011;71592;52.178;4.512;2024-02-26T09:41:15;5.85;;;4.20;;
82030;SDS011;71592;52.178;4.512;2024-02-26T09:43:41;4.97;;;4.32;;
82030;SDS011;71592;52.178;4.512;2024-02-26T09:46:08;7.03;;;4.65;;
82030;SDS011;71592;52.178;4.512;2024-02-26T09:48:33;4.50;;;3.70;;
82030;SDS011;71592;52.178;4.512;2024-02-26T09:51:01;4.57;;;3.53;;
82030;SDS011;71592;52.178;4.512;2024-02-26T09:53:27;9.25;;;6.00;;
82030;SDS011;71592;52.178;4.512;2024-02-26T09:55:53;5.72;;;3.63;;
82030;SDS011;71592;52.178;4.512;2024-02-26T09:58:22;4.93;;;3.05;;
82030;SDS011;71592;52.178;4.512;2024-02-26T10:00:53;8.45;;;4.55;;
82030;SDS011;71592;52.178;4.512;2024-02-26T10:03:18;6.30;;;3.20;;
82030;SDS011;71592;52.178;4.512;2024-02-26T10:05:46;5.22;;;3.72;;
82030;SDS011;71592;52.178;4.512;2024-02-26T10:08:12;4.77;;;2.97;;
82030;SDS011;71592;52.178;4.512;2024-02-26T10:10:37;4.45;;;3.10;;
82030;SDS011;71592;52.178;4.512;2024-02-26T10:13:03;4.45;;;3.30;;
82030;SDS011;71592;52.178;4.512;2024-02-26T10:15:34;6.60;;;3.65;;
82030;SDS011;71592;52.178;4.512;2024-02-26T10:18:03;4.75;;;3.53;;
82030;SDS011;71592;52.178;4.512;2024-02-26T10:20:28;7.80;;;3.83;;
82030;SDS011;71592;52.178;4.512;2024-02-26T10:22:53;5.63;;;3.40;;
82030;SDS011;71592;52.178;4.512;2024-02-26T10:25:19;5.32;;;3.40;;
82030;SDS011;71592;52.178;4.512;2024-02-26T10:27:47;4.32;;;3.05;;
82030;SDS011;71592;52.178;4.512;2024-02-26T10:30:19;5.33;;;3.80;;
82030;SDS011;71592;52.178;4.512;2024-02-26T10:32:46;5.55;;;3.30;;
82030;SDS011;71592;52.178;4.512;2024-02-26T10:35:20;5.05;;;3.20;;
82030;SDS011;71592;52.178;4.512;2024-02-26T10:37:46;5.85;;;4.45;;
82030;SDS011;71592;52.178;4.512;2024-02-26T10:40:12;5.85;;;4.15;;
82030;SDS011;71592;52.178;4.512;2024-02-26T10:42:37;7.43;;;3.47;;
82030;SDS011;71592;52.178;4.512;2024-02-26T10:45:04;4.63;;;2.80;;
82030;SDS011;71592;52.178;4.512;2024-02-26T10:47:30;4.97;;;3.40;;
82030;SDS011;71592;52.178;4.512;2024-02-26T10:49:56;5.85;;;3.13;;
82030;SDS011;71592;52.178;4.512;2024-02-26T10:52:21;5.87;;;4.40;;
82030;SDS011;71592;52.178;4.512;2024-02-26T10:54:48;5.82;;;4.00;;
82030;SDS011;71592;52.178;4.512;2024-02-26T10:57:15;7.22;;;3.70;;
82030;SDS011;71592;52.178;4.512;2024-02-26T10:59:41;4.65;;;3.10;;
82030;SDS011;71592;52.178;4.512;2024-02-26T11:02:07;5.72;;;4.05;;
82030;SDS011;71592;52.178;4.512;2024-02-26T11:04:33;5.70;;;3.03;;
82030;SDS011;71592;52.178;4.512;2024-02-26T11:06:59;4.43;;;2.65;;
82030;SDS011;71592;52.178;4.512;2024-02-26T11:09:26;5.03;;;3.60;;
82030;SDS011;71592;52.178;4.512;2024-02-26T11:11:52;6.40;;;3.78;;
82030;SDS011;71592;52.178;4.512;2024-02-26T11:14:19;4.95;;;2.95;;
82030;SDS011;71592;52.178;4.512;2024-02-26T11:16:45;3.70;;;2.20;;
82030;SDS011;71592;52.178;4.512;2024-02-26T11:19:12;8.35;;;2.80;;
82030;SDS011;71592;52.178;4.512;2024-02-26T11:21:39;3.92;;;2.63;;
82030;SDS011;71592;52.178;4.512;2024-02-26T11:24:07;4.32;;;3.00;;
82030;SDS011;71592;52.178;4.512;2024-02-26T11:26:33;4.50;;;2.90;;
82030;SDS011;71592;52.178;4.512;2024-02-26T11:29:02;5.57;;;3.33;;
82030;SDS011;71592;52.178;4.512;2024-02-26T11:31:28;6.07;;;3.40;;
82030;SDS011;71592;52.178;4.512;2024-02-26T11:33:54;4.20;;;3.60;;
82030;SDS011;71592;52.178;4.512;2024-02-26T11:36:20;5.25;;;2.60;;
82030;SDS011;71592;52.178;4.512;2024-02-26T11:38:48;4.17;;;2.97;;
82030;SDS011;71592;52.178;4.512;2024-02-26T11:41:16;4.00;;;2.42;;
82030;SDS011;71592;52.178;4.512;2024-02-26T11:43:58;4.25;;;2.88;;
82030;SDS011;71592;52.178;4.512;2024-02-26T11:46:29;3.40;;;2.03;;
82030;SDS011;71592;52.178;4.512;2024-02-26T11:48:59;6.28;;;3.22;;
82030;SDS011;71592;52.178;4.512;2024-02-26T11:51:26;5.35;;;2.58;;
82030;SDS011;71592;52.178;4.512;2024-02-26T11:53:52;4.22;;;2.55;;
82030;SDS011;71592;52.178;4.512;2024-02-26T11:58:47;3.63;;;1.95;;
82030;SDS011;71592;52.178;4.512;2024-02-26T12:06:23;3.63;;;2.15;;
82030;SDS011;71592;52.178;4.512;2024-02-26T12:08:50;4.82;;;2.25;;
82030;SDS011;71592;52.178;4.512;2024-02-26T12:11:15;3.73;;;2.37;;
82030;SDS011;71592;52.178;4.512;2024-02-26T12:13:41;5.40;;;2.60;;
82030;SDS011;71592;52.178;4.512;2024-02-26T12:16:06;4.30;;;2.47;;
82030;SDS011;71592;52.178;4.512;2024-02-26T12:18:32;3.38;;;2.08;;
82030;SDS011;71592;52.178;4.512;2024-02-26T12:21:00;5.15;;;1.85;;
82030;SDS011;71592;52.178;4.512;2024-02-26T12:23:26;5.03;;;2.85;;
82030;SDS011;71592;52.178;4.512;2024-02-26T12:25:52;3.50;;;2.10;;
82030;SDS011;71592;52.178;4.512;2024-02-26T12:28:17;5.75;;;2.10;;
82030;SDS011;71592;52.178;4.512;2024-02-26T12:30:43;3.97;;;2.23;;
82030;SDS011;71592;52.178;4.512;2024-02-26T12:33:08;4.10;;;2.40;;
82030;SDS011;71592;52.178;4.512;2024-02-26T12:35:34;4.03;;;2.72;;
82030;SDS011;71592;52.178;4.512;2024-02-26T12:37:59;4.07;;;2.70;;
82030;SDS011;71592;52.178;4.512;2024-02-26T12:40:25;3.33;;;2.15;;
82030;SDS011;71592;52.178;4.512;2024-02-26T12:42:52;5.60;;;2.55;;
82030;SDS011;71592;52.178;4.512;2024-02-26T12:45:20;3.78;;;2.50;;
82030;SDS011;71592;52.178;4.512;2024-02-26T12:47:45;5.45;;;2.63;;
82030;SDS011;71592;52.178;4.512;2024-02-26T12:50:11;4.55;;;1.90;;
82030;SDS011;71592;52.178;4.512;2024-02-26T12:52:40;3.85;;;1.95;;
82030;SDS011;71592;52.178;4.512;2024-02-26T12:55:06;4.97;;;2.40;;
82030;SDS011;71592;52.178;4.512;2024-02-26T12:57:38;4.40;;;2.10;;
82030;SDS011;71592;52.178;4.512;2024-02-26T13:00:06;4.57;;;2.10;;
82030;SDS011;71592;52.178;4.512;2024-02-26T13:02:36;4.90;;;2.47;;
82030;SDS011;71592;52.178;4.512;2024-02-26T13:05:05;4.72;;;2.20;;
82030;SDS011;71592;52.178;4.512;2024-02-26T13:07:31;6.20;;;2.13;;
82030;SDS011;71592;52.178;4.512;2024-02-26T13:09:58;4.07;;;1.90;;
82030;SDS011;71592;52.178;4.512;2024-02-26T13:12:23;4.05;;;2.30;;
82030;SDS011;71592;52.178;4.512;2024-02-26T13:14:58;4.53;;;2.30;;
82030;SDS011;71592;52.178;4.512;2024-02-26T13:17:23;4.75;;;2.40;;
82030;SDS011;71592;52.178;4.512;2024-02-26T13:19:50;3.70;;;2.15;;
82030;SDS011;71592;52.178;4.512;2024-02-26T13:22:15;3.90;;;2.13;;
82030;SDS011;71592;52.178;4.512;2024-02-26T13:24:41;4.25;;;2.20;;
82030;SDS011;71592;52.178;4.512;2024-02-26T13:27:07;5.13;;;2.42;;
82030;SDS011;71592;52.178;4.512;2024-02-26T13:29:32;6.43;;;2.38;;
82030;SDS011;71592;52.178;4.512;2024-02-26T13:31:58;3.85;;;2.20;;
82030;SDS011;71592;52.178;4.512;2024-02-26T13:34:27;4.18;;;2.08;;
82030;SDS011;71592;52.178;4.512;2024-02-26T13:36:52;3.35;;;1.95;;
82030;SDS011;71592;52.178;4.512;2024-02-26T13:39:25;4.57;;;2.10;;
82030;SDS011;71592;52.178;4.512;2024-02-26T13:41:51;3.10;;;1.77;;
82030;SDS011;71592;52.178;4.512;2024-02-26T13:44:16;5.13;;;2.25;;
82030;SDS011;71592;52.178;4.512;2024-02-26T13:46:41;4.40;;;2.37;;
82030;SDS011;71592;52.178;4.512;2024-02-26T13:49:08;6.70;;;2.03;;
82030;SDS011;71592;52.178;4.512;2024-02-26T13:51:33;4.65;;;2.47;;
82030;SDS011;71592;52.178;4.512;2024-02-26T13:54:00;2.92;;;1.60;;
82030;SDS011;71592;52.178;4.512;2024-02-26T13:56:25;3.38;;;1.80;;
82030;SDS011;71592;52.178;4.512;2024-02-26T13:58:51;2.88;;;2.00;;
82030;SDS011;71592;52.178;4.512;2024-02-26T14:01:16;2.92;;;1.52;;
82030;SDS011;71592;52.178;4.512;2024-02-26T14:03:41;4.57;;;2.70;;
82030;SDS011;71592;52.178;4.512;2024-02-26T14:06:07;4.27;;;1.87;;
82030;SDS011;71592;52.178;4.512;2024-02-26T14:08:32;4.22;;;2.03;;
82030;SDS011;71592;52.178;4.512;2024-02-26T14:10:58;2.78;;;1.73;;
82030;SDS011;71592;52.178;4.512;2024-02-26T14:13:25;3.90;;;1.95;;
82030;SDS011;71592;52.178;4.512;2024-02-26T14:15:50;3.17;;;1.97;;
82030;SDS011;71592;52.178;4.512;2024-02-26T14:18:15;4.23;;;2.70;;
82030;SDS011;71592;52.178;4.512;2024-02-26T14:20:40;3.50;;;2.37;;
82030;SDS011;71592;52.178;4.512;2024-02-26T14:23:06;3.95;;;1.98;;
82030;SDS011;71592;52.178;4.512;2024-02-26T14:25:31;4.38;;;2.30;;
82030;SDS011;71592;52.178;4.512;2024-02-26T14:27:57;6.10;;;2.77;;
82030;SDS011;71592;52.178;4.512;2024-02-26T14:30:24;4.72;;;3.10;;
82030;SDS011;71592;52.178;4.512;2024-02-26T14:32:49;8.63;;;3.38;;
82030;SDS011;71592;52.178;4.512;2024-02-26T14:35:15;4.30;;;2.10;;
82030;SDS011;71592;52.178;4.512;2024-02-26T14:37:40;4.93;;;3.10;;
82030;SDS011;71592;52.178;4.512;2024-02-26T14:40:06;4.88;;;3.00;;
82030;SDS011;71592;52.178;4.512;2024-02-26T14:42:31;5.85;;;2.53;;